createdAt,value
2022-11-13T00:01:00.261Z,20.5
2022-11-13T00:02:43.963Z,20.5
2022-11-13T00:04:27.675Z,20.5
2022-11-13T00:06:11.363Z,20.5
2022-11-13T00:07:55.068Z,20.5
2022-11-13T00:09:38.776Z,20.5
2022-11-13T00:11:22.482Z,20.5
2022-11-13T00:13:06.211Z,20.5
2022-11-13T00:14:49.874Z,20.5
2022-11-13T00:16:33.587Z,20.5
2022-11-13T00:18:17.281Z,20.5
2022-11-13T00:20:00.988Z,20.5
2022-11-13T00:21:44.695Z,20.5
2022-11-13T00:23:28.390Z,20.5
2022-11-13T00:25:12.102Z,20.5
2022-11-13T00:26:55.791Z,20.5
2022-11-13T00:28:39.513Z,20.5
2022-11-13T00:30:23.202Z,20.5
2022-11-13T00:32:06.896Z,20.5
2022-11-13T00:33:50.601Z,20.5
2022-11-13T00:35:34.309Z,20.4
2022-11-13T00:37:18.006Z,20.5
2022-11-13T00:39:01.723Z,20.5
2022-11-13T00:40:45.415Z,20.5
2022-11-13T00:42:29.118Z,20.5
2022-11-13T00:45:56.515Z,20.4
2022-11-13T00:47:40.267Z,20.5
2022-11-13T00:49:23.954Z,20.4
2022-11-13T00:51:07.624Z,20.4
2022-11-13T00:52:51.331Z,20.4
2022-11-13T00:54:35.056Z,20.4
2022-11-13T00:56:18.737Z,20.4
2022-11-13T00:58:02.436Z,20.4
2022-11-13T00:59:46.135Z,20.4
2022-11-13T01:01:29.912Z,20.4
2022-11-13T01:03:13.598Z,20.4
2022-11-13T01:04:57.232Z,20.4
2022-11-13T01:06:40.950Z,20.4
2022-11-13T01:08:24.647Z,20.4
2022-11-13T01:10:08.382Z,20.4
2022-11-13T01:11:52.058Z,20.4
2022-11-13T01:13:35.755Z,20.4
2022-11-13T01:15:19.472Z,20.4
2022-11-13T01:17:03.192Z,20.4
2022-11-13T01:18:46.875Z,20.4
2022-11-13T01:20:30.579Z,20.4
2022-11-13T01:22:14.314Z,20.4
2022-11-13T01:23:58.010Z,20.4
2022-11-13T01:25:41.759Z,20.4
2022-11-13T01:27:25.384Z,20.4
2022-11-13T01:29:09.083Z,20.4
2022-11-13T01:30:52.816Z,20.4
2022-11-13T01:32:36.472Z,20.4
2022-11-13T01:34:20.191Z,20.4
2022-11-13T01:36:03.891Z,20.4
2022-11-13T01:37:47.590Z,20.4
2022-11-13T01:39:31.302Z,20.4
2022-11-13T01:41:14.999Z,20.4
2022-11-13T01:42:58.697Z,20.4
2022-11-13T01:44:42.406Z,20.4
2022-11-13T01:46:26.099Z,20.4
2022-11-13T01:48:09.807Z,20.4
2022-11-13T01:49:53.505Z,20.4
2022-11-13T01:51:37.213Z,20.4
2022-11-13T01:53:20.941Z,20.4
2022-11-13T01:55:04.618Z,20.4
2022-11-13T01:56:48.331Z,20.4
2022-11-13T01:58:32.056Z,20.4
2022-11-13T02:00:15.729Z,20.4
2022-11-13T02:01:59.428Z,20.4
2022-11-13T02:03:43.132Z,20.4
2022-11-13T02:05:26.837Z,20.4
2022-11-13T02:07:10.546Z,20.4
2022-11-13T02:08:54.249Z,20.3
2022-11-13T02:10:37.943Z,20.4
2022-11-13T02:12:21.645Z,20.3
2022-11-13T02:14:05.368Z,20.4
2022-11-13T02:15:49.058Z,20.4
2022-11-13T02:19:16.457Z,20.3
2022-11-13T02:22:43.861Z,20.3
2022-11-13T02:24:27.569Z,20.3
2022-11-13T02:26:11.311Z,20.3
2022-11-13T02:27:55.040Z,20.3
2022-11-13T02:29:38.683Z,20.3
2022-11-13T02:31:22.380Z,20.3
2022-11-13T02:33:06.074Z,20.3
2022-11-13T02:34:49.775Z,20.3
2022-11-13T02:36:33.479Z,20.3
2022-11-13T02:38:17.221Z,20.3
2022-11-13T02:40:00.896Z,20.3
2022-11-13T02:41:44.582Z,20.3
2022-11-13T02:43:28.372Z,20.3
2022-11-13T02:45:11.999Z,20.3
2022-11-13T02:46:55.694Z,20.3
2022-11-13T02:48:39.397Z,20.3
2022-11-13T02:50:23.098Z,20.3
2022-11-13T02:52:06.866Z,20.3
2022-11-13T02:53:50.506Z,20.3
2022-11-13T02:55:34.206Z,20.3
2022-11-13T02:57:17.906Z,20.3
2022-11-13T02:59:01.602Z,20.3
2022-11-13T03:00:45.314Z,20.3
2022-11-13T03:02:29.027Z,20.3
2022-11-13T03:04:12.772Z,20.3
2022-11-13T03:05:56.428Z,20.3
2022-11-13T03:07:40.322Z,20.2
2022-11-13T03:09:23.873Z,20.2
2022-11-13T03:11:07.671Z,20.3
2022-11-13T03:12:51.413Z,20.3
2022-11-13T03:14:35.100Z,20.3
2022-11-13T03:16:18.791Z,20.3
2022-11-13T03:18:02.443Z,20.3
2022-11-13T03:19:46.096Z,20.3
2022-11-13T03:21:29.887Z,20.3
2022-11-13T03:23:13.459Z,20.3
2022-11-13T03:24:57.155Z,20.3
2022-11-13T03:26:40.861Z,20.3
2022-11-13T03:28:24.558Z,20.3
2022-11-13T03:30:08.262Z,20.3
2022-11-13T03:31:51.960Z,20.3
2022-11-13T03:33:35.734Z,20.3
2022-11-13T03:35:19.367Z,20.3
2022-11-13T03:37:03.127Z,20.3
2022-11-13T03:38:46.774Z,20.3
2022-11-13T03:40:30.476Z,20.3
2022-11-13T03:42:14.169Z,20.3
2022-11-13T03:43:57.877Z,20.3
2022-11-13T03:45:41.578Z,20.3
2022-11-13T03:47:25.354Z,20.3
2022-11-13T03:49:08.987Z,20.3
2022-11-13T03:50:52.714Z,20.3
2022-11-13T03:52:36.390Z,20.3
2022-11-13T03:54:20.094Z,20.3
2022-11-13T03:56:03.798Z,20.3
2022-11-13T03:57:47.500Z,20.3
2022-11-13T03:59:31.199Z,20.3
2022-11-13T04:01:14.906Z,20.3
2022-11-13T04:02:58.706Z,20.3
2022-11-13T04:04:42.351Z,20.3
2022-11-13T04:06:26.064Z,20.3
2022-11-13T04:08:09.724Z,20.3
2022-11-13T04:09:53.448Z,20.3
2022-11-13T04:11:37.122Z,20.3
2022-11-13T04:13:20.841Z,20.3
2022-11-13T04:15:04.529Z,20.3
2022-11-13T04:16:48.231Z,20.3
2022-11-13T04:18:31.935Z,20.3
2022-11-13T04:20:15.636Z,20.3
2022-11-13T04:21:59.342Z,20.3
2022-11-13T04:23:43.043Z,20.3
2022-11-13T04:25:26.759Z,20.3
2022-11-13T04:27:10.463Z,20.3
2022-11-13T04:28:54.158Z,20.3
2022-11-13T04:30:37.849Z,20.3
2022-11-13T04:32:21.619Z,20.3
2022-11-13T04:34:05.335Z,20.3
2022-11-13T04:35:48.968Z,20.3
2022-11-13T04:37:32.734Z,20.3
2022-11-13T04:39:16.368Z,20.2
2022-11-13T04:41:00.078Z,20.3
2022-11-13T04:42:43.805Z,20.3
2022-11-13T04:44:27.497Z,20.3
2022-11-13T04:46:11.242Z,20.3
2022-11-13T04:47:54.902Z,20.2
2022-11-13T04:49:38.578Z,20.2
2022-11-13T04:51:22.284Z,20.3
2022-11-13T04:53:06.026Z,20.3
2022-11-13T04:54:49.686Z,20.3
2022-11-13T04:56:33.390Z,20.2
2022-11-13T04:58:17.101Z,20.2
2022-11-13T05:00:00.842Z,20.2
2022-11-13T05:01:44.489Z,20.2
2022-11-13T05:03:28.204Z,20.2
2022-11-13T05:05:11.949Z,20.2
2022-11-13T05:06:55.595Z,20.2
2022-11-13T05:08:39.343Z,20.2
2022-11-13T05:10:23.058Z,20.2
2022-11-13T05:12:06.717Z,20.2
2022-11-13T05:13:50.500Z,20.2
2022-11-13T05:15:34.127Z,20.2
2022-11-13T05:17:17.869Z,20.2
2022-11-13T05:19:01.531Z,20.2
2022-11-13T05:20:45.220Z,20.2
2022-11-13T05:22:28.944Z,20.2
2022-11-13T05:24:12.625Z,20.2
2022-11-13T05:25:56.332Z,20.2
2022-11-13T05:27:40.037Z,20.2
2022-11-13T05:29:23.734Z,20.2
2022-11-13T05:31:07.445Z,20.2
2022-11-13T05:32:51.201Z,20.2
2022-11-13T05:34:34.844Z,20.2
2022-11-13T05:36:18.545Z,20.2
2022-11-13T05:38:02.257Z,20.2
2022-11-13T05:39:45.975Z,20.2
2022-11-13T05:41:29.656Z,20.2
2022-11-13T05:43:13.352Z,20.2
2022-11-13T05:44:57.049Z,20.2
2022-11-13T05:46:40.804Z,20.2
2022-11-13T05:48:24.465Z,20.2
2022-11-13T05:50:08.165Z,20.2
2022-11-13T05:51:51.883Z,20.2
2022-11-13T05:53:35.565Z,20.2
2022-11-13T05:55:19.270Z,20.2
2022-11-13T05:57:02.969Z,20.2
2022-11-13T05:58:46.674Z,20.2
2022-11-13T06:00:30.384Z,20.2
2022-11-13T06:02:14.097Z,20.2
2022-11-13T06:03:57.789Z,20.2
2022-11-13T06:05:41.489Z,20.2
2022-11-13T06:07:25.182Z,20.2
2022-11-13T06:09:08.888Z,20.2
2022-11-13T06:10:52.609Z,20.2
2022-11-13T06:12:36.345Z,20.2
2022-11-13T06:14:19.999Z,20.2
2022-11-13T06:16:03.699Z,20.2
2022-11-13T06:17:47.406Z,20.2
2022-11-13T06:19:31.111Z,20.2
2022-11-13T06:21:14.807Z,20.2
2022-11-13T06:22:58.521Z,20.2
2022-11-13T06:24:42.218Z,20.2
2022-11-13T06:26:25.921Z,20.2
2022-11-13T06:28:09.624Z,20.2
2022-11-13T06:29:53.315Z,20.2
2022-11-13T06:31:37.024Z,20.2
2022-11-13T06:33:20.731Z,20.2
2022-11-13T06:35:04.484Z,20.2
2022-11-13T06:36:48.129Z,20.2
2022-11-13T06:38:31.861Z,20.2
2022-11-13T06:40:15.589Z,20.2
2022-11-13T06:41:59.233Z,20.2
2022-11-13T06:43:42.936Z,20.2
2022-11-13T06:45:26.643Z,20.2
2022-11-13T06:47:10.352Z,20.2
2022-11-13T06:48:54.133Z,20.2
2022-11-13T06:50:37.763Z,20.2
2022-11-13T06:52:21.463Z,20.2
2022-11-13T06:54:05.178Z,20.2
2022-11-13T06:55:48.937Z,20.2
2022-11-13T06:57:32.568Z,20.2
2022-11-13T06:59:16.268Z,20.2
2022-11-13T07:00:59.976Z,20.2
2022-11-13T07:02:43.780Z,20.2
2022-11-13T07:04:27.375Z,20.2
2022-11-13T07:06:11.094Z,20.2
2022-11-13T07:07:54.777Z,20.2
2022-11-13T07:09:38.501Z,20.2
2022-11-13T07:11:22.217Z,20.2
2022-11-13T07:13:05.929Z,20.2
2022-11-13T07:14:49.621Z,20.2
2022-11-13T07:16:33.294Z,20.2
2022-11-13T07:18:16.992Z,20.2
2022-11-13T07:20:00.689Z,20.2
2022-11-13T07:21:44.433Z,20.2
2022-11-13T07:23:28.100Z,20.2
2022-11-13T07:25:11.810Z,20.2
2022-11-13T07:26:55.504Z,20.2
2022-11-13T07:28:39.213Z,20.2
2022-11-13T07:30:22.912Z,20.2
2022-11-13T07:32:06.752Z,20.2
2022-11-13T07:33:50.462Z,20.2
2022-11-13T07:35:34.028Z,20.2
2022-11-13T07:37:17.727Z,20.3
2022-11-13T07:39:01.513Z,20.2
2022-11-13T07:40:45.123Z,20.3
2022-11-13T07:42:28.826Z,20.3
2022-11-13T07:44:12.532Z,20.3
2022-11-13T07:45:56.285Z,20.3
2022-11-13T07:47:39.947Z,20.3
2022-11-13T07:49:23.659Z,20.3
2022-11-13T07:51:07.359Z,20.3
2022-11-13T07:52:51.051Z,20.3
2022-11-13T07:54:34.747Z,20.3
2022-11-13T07:56:18.462Z,20.3
2022-11-13T07:58:02.168Z,20.3
2022-11-13T07:59:45.942Z,20.3
2022-11-13T08:01:29.571Z,20.3
2022-11-13T08:03:13.395Z,20.3
2022-11-13T08:04:57.081Z,20.3
2022-11-13T08:06:40.673Z,20.3
2022-11-13T08:08:24.364Z,20.3
2022-11-13T08:10:08.197Z,20.3
2022-11-13T08:11:51.866Z,20.3
2022-11-13T08:13:35.484Z,20.3
2022-11-13T08:15:19.183Z,20.3
2022-11-13T08:17:02.885Z,20.3
2022-11-13T08:18:46.590Z,20.3
2022-11-13T08:20:30.299Z,20.3
2022-11-13T08:22:13.993Z,20.3
2022-11-13T08:23:57.698Z,20.3
2022-11-13T08:25:41.396Z,20.3
2022-11-13T08:27:25.096Z,20.4
2022-11-13T08:29:08.802Z,20.4
2022-11-13T08:30:52.590Z,20.4
2022-11-13T08:32:36.273Z,20.4
2022-11-13T08:34:19.913Z,20.4
2022-11-13T08:36:03.652Z,20.4
2022-11-13T08:37:47.381Z,20.4
2022-11-13T08:39:31.037Z,20.4
2022-11-13T08:41:14.718Z,20.4
2022-11-13T08:42:58.426Z,20.4
2022-11-13T08:44:42.126Z,20.4
2022-11-13T08:46:25.823Z,20.4
2022-11-13T08:48:09.534Z,20.4
2022-11-13T08:49:53.231Z,20.4
2022-11-13T08:51:36.999Z,20.4
2022-11-13T08:53:20.668Z,20.4
2022-11-13T08:55:04.342Z,20.4
2022-11-13T08:56:48.051Z,20.4
2022-11-13T08:58:31.754Z,20.4
2022-11-13T09:00:15.441Z,20.4
2022-11-13T09:01:59.372Z,20.4
2022-11-13T09:03:42.901Z,20.4
2022-11-13T09:05:26.557Z,20.4
2022-11-13T09:07:10.268Z,20.5
2022-11-13T09:08:53.960Z,20.5
2022-11-13T09:10:37.665Z,20.5
2022-11-13T09:12:21.371Z,20.5
2022-11-13T09:14:05.077Z,20.5
2022-11-13T09:15:48.769Z,20.5
2022-11-13T09:17:32.474Z,20.5
2022-11-13T09:19:16.175Z,20.5
2022-11-13T09:20:59.883Z,20.5
2022-11-13T09:22:43.577Z,20.5
2022-11-13T09:24:27.311Z,20.5
2022-11-13T09:26:11.022Z,20.5
2022-11-13T09:27:54.689Z,20.5
2022-11-13T09:29:38.391Z,20.5
2022-11-13T09:31:22.132Z,20.5
2022-11-13T09:33:05.866Z,20.6
2022-11-13T09:34:49.512Z,20.5
2022-11-13T09:38:16.896Z,20.6
2022-11-13T09:40:00.613Z,20.6
2022-11-13T09:41:44.306Z,20.6
2022-11-13T09:43:28.007Z,20.6
2022-11-13T09:45:11.721Z,20.6
2022-11-13T09:46:55.559Z,20.6
2022-11-13T09:48:39.120Z,20.6
2022-11-13T09:50:22.844Z,20.6
2022-11-13T09:52:06.534Z,20.6
2022-11-13T09:53:50.234Z,20.6
2022-11-13T09:55:33.934Z,20.6
2022-11-13T09:57:17.636Z,20.6
2022-11-13T09:59:01.420Z,20.6
2022-11-13T10:00:45.043Z,20.6
2022-11-13T10:02:28.743Z,20.6
2022-11-13T10:04:12.440Z,20.6
2022-11-13T10:05:56.151Z,20.6
2022-11-13T10:07:39.859Z,20.6
2022-11-13T10:09:23.558Z,20.6
2022-11-13T10:11:07.263Z,20.6
2022-11-13T10:12:50.980Z,20.7
2022-11-13T10:14:34.674Z,20.7
2022-11-13T10:16:18.373Z,20.7
2022-11-13T10:18:02.082Z,20.7
2022-11-13T10:19:45.905Z,20.7
2022-11-13T10:21:29.522Z,20.7
2022-11-13T10:23:13.178Z,20.7
2022-11-13T10:24:56.885Z,20.7
2022-11-13T10:26:40.614Z,20.7
2022-11-13T10:28:24.285Z,20.7
2022-11-13T10:30:08.023Z,20.7
2022-11-13T10:31:51.744Z,20.7
2022-11-13T10:33:35.405Z,20.7
2022-11-13T10:35:19.133Z,20.7
2022-11-13T10:37:02.800Z,20.7
2022-11-13T10:40:30.266Z,20.7
2022-11-13T10:42:13.980Z,20.7
2022-11-13T10:43:57.608Z,20.7
2022-11-13T10:45:41.312Z,20.7
2022-11-13T10:47:25.005Z,20.7
2022-11-13T10:49:08.715Z,20.7
2022-11-13T10:50:52.486Z,20.8
2022-11-13T10:52:36.203Z,20.8
2022-11-13T10:54:19.826Z,20.8
2022-11-13T10:56:03.596Z,20.8
2022-11-13T10:57:47.252Z,20.8
2022-11-13T10:59:30.936Z,20.8
2022-11-13T11:01:14.634Z,20.8
2022-11-13T11:02:58.343Z,20.8
2022-11-13T11:04:42.149Z,20.8
2022-11-13T11:06:25.739Z,20.8
2022-11-13T11:08:09.459Z,20.8
2022-11-13T11:09:53.255Z,20.8
2022-11-13T11:11:36.868Z,20.8
2022-11-13T11:15:04.317Z,20.9
2022-11-13T11:16:47.965Z,20.9
2022-11-13T11:18:31.669Z,20.9
2022-11-13T11:20:15.374Z,20.9
2022-11-13T11:21:59.067Z,20.9
2022-11-13T11:23:42.766Z,20.9
2022-11-13T11:25:26.471Z,20.9
2022-11-13T11:27:10.186Z,20.9
2022-11-13T11:30:37.578Z,20.9
2022-11-13T11:32:21.281Z,20.9
2022-11-13T11:34:04.977Z,20.9
2022-11-13T11:35:48.683Z,20.9
2022-11-13T11:37:32.390Z,20.9
2022-11-13T11:39:16.091Z,21
2022-11-13T11:40:59.801Z,21
2022-11-13T11:42:43.496Z,21
2022-11-13T11:44:27.200Z,21
2022-11-13T11:46:10.911Z,21
2022-11-13T11:47:54.603Z,21
2022-11-13T11:49:38.304Z,21
2022-11-13T11:51:22.034Z,21
2022-11-13T11:53:05.715Z,21
2022-11-13T11:54:49.419Z,21
2022-11-13T11:56:33.110Z,21
2022-11-13T11:58:16.829Z,21.1
2022-11-13T12:00:00.523Z,21.1
2022-11-13T12:01:44.220Z,21.1
2022-11-13T12:03:27.922Z,21.1
2022-11-13T12:05:11.640Z,21.1
2022-11-13T12:06:55.330Z,21.1
2022-11-13T12:08:39.031Z,21.1
2022-11-13T12:10:22.734Z,21.1
2022-11-13T12:12:06.434Z,21.1
2022-11-13T12:13:50.148Z,21.1
2022-11-13T12:15:33.839Z,21.2
2022-11-13T12:17:17.545Z,21.2
2022-11-13T12:19:01.251Z,21.2
2022-11-13T12:20:45.007Z,21.2
2022-11-13T12:22:28.663Z,21.2
2022-11-13T12:24:12.449Z,21.2
2022-11-13T12:25:56.063Z,21.2
2022-11-13T12:27:39.770Z,21.2
2022-11-13T12:29:23.461Z,21.2
2022-11-13T12:31:07.208Z,21.2
2022-11-13T12:32:50.907Z,21.2
2022-11-13T12:34:34.572Z,21.2
2022-11-13T12:36:18.276Z,21.2
2022-11-13T12:38:01.977Z,21.2
2022-11-13T12:39:45.679Z,21.3
2022-11-13T12:41:29.387Z,21.3
2022-11-13T12:43:13.079Z,21.3
2022-11-13T12:44:56.787Z,21.3
2022-11-13T12:46:40.487Z,21.3
2022-11-13T12:48:24.190Z,21.3
2022-11-13T12:50:07.897Z,21.3
2022-11-13T12:51:51.604Z,21.3
2022-11-13T12:53:35.304Z,21.3
2022-11-13T12:55:19.001Z,21.3
2022-11-13T12:57:02.699Z,21.3
2022-11-13T12:58:46.399Z,21.3
2022-11-13T13:00:30.143Z,21.4
2022-11-13T13:02:13.798Z,21.4
2022-11-13T13:03:57.508Z,21.4
2022-11-13T13:05:41.211Z,21.4
2022-11-13T13:07:24.914Z,21.4
2022-11-13T13:09:08.621Z,21.4
2022-11-13T13:10:52.366Z,21.4
2022-11-13T13:12:36.024Z,21.4
2022-11-13T13:14:19.732Z,21.4
2022-11-13T13:16:03.436Z,21.4
2022-11-13T13:17:47.131Z,21.4
2022-11-13T13:19:30.855Z,21.4
2022-11-13T13:21:14.534Z,21.4
2022-11-13T13:22:58.243Z,21.4
2022-11-13T13:24:41.939Z,21.5
2022-11-13T13:26:25.673Z,21.5
2022-11-13T13:28:09.353Z,21.5
2022-11-13T13:29:53.050Z,21.5
2022-11-13T13:31:36.758Z,21.5
2022-11-13T13:33:20.459Z,21.5
2022-11-13T13:35:04.229Z,21.5
2022-11-13T13:36:47.932Z,21.5
2022-11-13T13:38:31.638Z,21.5
2022-11-13T13:40:15.268Z,21.5
2022-11-13T13:41:59.004Z,21.6
2022-11-13T13:43:42.723Z,21.6
2022-11-13T13:45:26.381Z,21.6
2022-11-13T13:47:10.081Z,21.6
2022-11-13T13:48:53.853Z,21.6
2022-11-13T13:50:37.524Z,21.6
2022-11-13T13:52:21.192Z,21.6
2022-11-13T13:54:04.881Z,21.6
2022-11-13T13:55:48.638Z,21.6
2022-11-13T13:57:32.294Z,21.6
2022-11-13T13:59:15.995Z,21.7
2022-11-13T14:00:59.694Z,21.7
2022-11-13T14:02:43.399Z,21.7
2022-11-13T14:04:27.103Z,21.7
2022-11-13T14:06:11.013Z,21.7
2022-11-13T14:07:54.679Z,21.7
2022-11-13T14:09:38.202Z,21.8
2022-11-13T14:11:22.088Z,21.8
2022-11-13T14:13:05.825Z,21.8
2022-11-13T14:14:49.487Z,21.8
2022-11-13T14:16:33.181Z,21.8
2022-11-13T14:18:16.851Z,21.8
2022-11-13T14:20:00.629Z,21.8
2022-11-13T14:21:44.279Z,21.9
2022-11-13T14:23:27.897Z,21.9
2022-11-13T14:25:11.721Z,21.9
2022-11-13T14:26:55.354Z,21.9
2022-11-13T14:28:39.124Z,21.9
2022-11-13T14:30:22.723Z,21.9
2022-11-13T14:32:06.558Z,21.9
2022-11-13T14:33:50.200Z,21.9
2022-11-13T14:35:33.854Z,22
2022-11-13T14:37:17.638Z,21.9
2022-11-13T14:39:01.328Z,21.9
2022-11-13T14:40:44.990Z,21.9
2022-11-13T14:42:28.810Z,21.9
2022-11-13T14:44:12.452Z,21.9
2022-11-13T14:45:56.137Z,21.9
2022-11-13T14:47:39.672Z,21.9
2022-11-13T14:49:23.553Z,21.9
2022-11-13T14:51:07.350Z,21.9
2022-11-13T14:52:50.957Z,21.9
2022-11-13T14:54:34.642Z,21.9
2022-11-13T14:56:18.339Z,21.9
2022-11-13T14:58:02.059Z,21.9
2022-11-13T14:59:45.743Z,21.9
2022-11-13T15:01:29.458Z,21.8
2022-11-13T15:03:13.011Z,21.8
2022-11-13T15:04:56.884Z,21.8
2022-11-13T15:06:40.465Z,21.8
2022-11-13T15:08:24.122Z,21.7
2022-11-13T15:10:07.895Z,21.7
2022-11-13T15:11:51.687Z,21.7
2022-11-13T15:13:35.463Z,21.6
2022-11-13T15:15:18.911Z,21.6
2022-11-13T15:17:02.692Z,21.6
2022-11-13T15:18:46.544Z,21.5
2022-11-13T15:20:30.208Z,21.5
2022-11-13T15:22:13.891Z,21.5
2022-11-13T15:23:57.599Z,21.5
2022-11-13T15:25:41.304Z,21.4
2022-11-13T15:27:25.074Z,21.4
2022-11-13T15:29:08.724Z,21.4
2022-11-13T15:30:52.390Z,21.4
2022-11-13T15:32:36.210Z,21.3
2022-11-13T15:34:19.830Z,21.3
2022-11-13T15:36:03.586Z,21.3
2022-11-13T15:37:47.244Z,21.3
2022-11-13T15:39:30.915Z,21.3
2022-11-13T15:41:14.592Z,21.3
2022-11-13T15:42:58.307Z,21.2
2022-11-13T15:44:42.017Z,21.2
2022-11-13T15:46:25.749Z,21.2
2022-11-13T15:48:09.436Z,21.2
2022-11-13T15:49:52.959Z,21.2
2022-11-13T15:51:36.787Z,21.2
2022-11-13T15:53:20.355Z,21.2
2022-11-13T15:55:04.254Z,21.2
2022-11-13T15:56:47.857Z,21.1
2022-11-13T15:58:31.646Z,21.1
2022-11-13T16:00:15.411Z,21.1
2022-11-13T16:01:59.050Z,21.1
2022-11-13T16:03:42.701Z,21.1
2022-11-13T16:05:26.462Z,21.1
2022-11-13T16:07:10.097Z,21.1
2022-11-13T16:08:53.690Z,21.1
2022-11-13T16:10:37.554Z,21.1
2022-11-13T16:12:21.352Z,21.1
2022-11-13T16:14:04.797Z,21.1
2022-11-13T16:15:48.699Z,21.1
2022-11-13T16:17:32.372Z,21.1
2022-11-13T16:19:16.072Z,21
2022-11-13T16:20:59.639Z,21
2022-11-13T16:22:43.512Z,21
2022-11-13T16:24:27.011Z,21
2022-11-13T16:26:10.849Z,21
2022-11-13T16:27:54.417Z,21
2022-11-13T16:29:38.251Z,21
2022-11-13T16:31:21.991Z,21
2022-11-13T16:33:05.712Z,21
2022-11-13T16:34:49.400Z,21
2022-11-13T16:36:33.150Z,21
2022-11-13T16:38:16.773Z,21
2022-11-13T16:40:00.335Z,21
2022-11-13T16:41:44.213Z,21
2022-11-13T16:43:27.854Z,21
2022-11-13T16:45:11.603Z,20.9
2022-11-13T16:46:55.188Z,20.9
2022-11-13T16:48:39.057Z,20.9
2022-11-13T16:50:22.727Z,20.9
2022-11-13T16:52:06.256Z,20.9
2022-11-13T16:53:50.147Z,20.9
2022-11-13T16:55:33.883Z,20.9
2022-11-13T16:57:17.354Z,20.9
2022-11-13T16:59:01.120Z,21
2022-11-13T17:00:44.956Z,21
2022-11-13T17:02:28.659Z,21
2022-11-13T17:04:12.358Z,21
2022-11-13T17:05:56.085Z,21
2022-11-13T17:07:39.724Z,21
2022-11-13T17:09:23.512Z,21
2022-11-13T17:11:06.979Z,21
2022-11-13T17:12:50.895Z,21
2022-11-13T17:14:34.537Z,21
2022-11-13T17:16:18.115Z,21
2022-11-13T17:18:02.061Z,21
2022-11-13T17:19:45.682Z,21
2022-11-13T17:21:29.387Z,21
2022-11-13T17:23:13.090Z,21
2022-11-13T17:24:56.799Z,21
2022-11-13T17:26:40.478Z,21
2022-11-13T17:28:24.194Z,21
2022-11-13T17:30:07.717Z,21
2022-11-13T17:31:51.614Z,21
2022-11-13T17:33:35.429Z,21
2022-11-13T17:35:18.857Z,21
2022-11-13T17:37:02.708Z,21
2022-11-13T17:38:46.406Z,21.1
2022-11-13T17:40:30.031Z,21.1
2022-11-13T17:42:13.755Z,21.1
2022-11-13T17:43:57.458Z,21
2022-11-13T17:45:41.309Z,21
2022-11-13T17:47:24.808Z,21
2022-11-13T17:49:08.628Z,21
2022-11-13T17:50:52.266Z,21
2022-11-13T17:52:36.061Z,21
2022-11-13T17:54:19.801Z,21
2022-11-13T17:56:03.414Z,21
2022-11-13T17:57:47.127Z,21
2022-11-13T17:59:30.815Z,21
2022-11-13T18:01:14.547Z,20.9
2022-11-13T18:02:58.182Z,20.9
2022-11-13T18:04:41.937Z,20.9
2022-11-13T18:06:25.463Z,20.9
2022-11-13T18:08:09.323Z,20.9
2022-11-13T18:09:52.874Z,20.9
2022-11-13T18:11:36.716Z,20.9
2022-11-13T18:13:20.272Z,20.9
2022-11-13T18:15:04.048Z,20.9
2022-11-13T18:16:47.857Z,20.9
2022-11-13T18:18:31.563Z,20.9
2022-11-13T18:20:15.307Z,20.8
2022-11-13T18:21:58.909Z,20.8
2022-11-13T18:23:42.630Z,20.8
2022-11-13T18:25:26.413Z,20.8
2022-11-13T18:27:09.984Z,20.8
2022-11-13T18:28:53.590Z,20.8
2022-11-13T18:30:37.358Z,20.8
2022-11-13T18:32:21.051Z,20.8
2022-11-13T18:34:04.844Z,20.8
2022-11-13T18:35:48.544Z,20.8
2022-11-13T18:37:32.149Z,20.8
2022-11-13T18:39:15.867Z,20.8
2022-11-13T18:40:59.511Z,20.8
2022-11-13T18:42:43.274Z,20.8
2022-11-13T18:44:26.989Z,20.8
2022-11-13T18:46:10.728Z,20.8
2022-11-13T18:47:54.425Z,20.8
2022-11-13T18:49:38.089Z,20.8
2022-11-13T18:51:21.859Z,20.7
2022-11-13T18:53:05.442Z,20.7
2022-11-13T18:54:49.143Z,20.7
2022-11-13T18:56:33.010Z,20.7
2022-11-13T18:58:16.658Z,20.7
2022-11-13T19:00:00.426Z,20.7
2022-11-13T19:01:43.949Z,20.7
2022-11-13T19:03:27.662Z,20.7
2022-11-13T19:05:11.457Z,20.7
2022-11-13T19:06:55.185Z,20.7
2022-11-13T19:08:38.914Z,20.7
2022-11-13T19:10:22.571Z,20.7
2022-11-13T19:12:06.344Z,20.7
2022-11-13T19:13:49.868Z,20.7
2022-11-13T19:15:33.717Z,20.7
2022-11-13T19:17:17.272Z,20.7
2022-11-13T19:19:01.151Z,20.7
2022-11-13T19:20:44.864Z,20.7
2022-11-13T19:22:28.542Z,20.7
2022-11-13T19:24:12.177Z,20.7
2022-11-13T19:25:55.898Z,20.7
2022-11-13T19:27:39.586Z,20.7
2022-11-13T19:29:23.351Z,20.7
2022-11-13T19:31:06.983Z,20.7
2022-11-13T19:32:50.782Z,20.6
2022-11-13T19:34:34.454Z,20.6
2022-11-13T19:36:18.007Z,20.6
2022-11-13T19:38:01.846Z,20.6
2022-11-13T19:39:45.414Z,20.6
2022-11-13T19:41:29.112Z,20.6
2022-11-13T19:43:12.887Z,20.6
2022-11-13T19:44:56.707Z,20.6
2022-11-13T19:46:40.214Z,20.6
2022-11-13T19:48:24.074Z,20.6
2022-11-13T19:50:07.734Z,20.6
2022-11-13T19:51:51.487Z,20.6
2022-11-13T19:53:35.022Z,20.6
2022-11-13T19:55:18.721Z,20.6
2022-11-13T19:57:02.593Z,20.6
2022-11-13T20:00:29.834Z,20.6
2022-11-13T20:02:13.669Z,20.6
2022-11-13T20:03:57.249Z,20.6
2022-11-13T20:05:41.058Z,20.6
2022-11-13T20:07:24.853Z,20.6
2022-11-13T20:09:08.543Z,20.6
2022-11-13T20:10:52.238Z,20.6
2022-11-13T20:12:35.901Z,20.6
2022-11-13T20:14:19.464Z,20.6
2022-11-13T20:16:03.296Z,20.6
2022-11-13T20:17:46.862Z,20.6
2022-11-13T20:19:30.745Z,20.6
2022-11-13T20:21:14.399Z,20.6
2022-11-13T20:22:58.086Z,20.6
2022-11-13T20:24:41.800Z,20.6
2022-11-13T20:26:25.485Z,20.6
2022-11-13T20:28:09.082Z,20.6
2022-11-13T20:29:52.945Z,20.6
2022-11-13T20:31:36.633Z,20.6
2022-11-13T20:33:20.179Z,20.6
2022-11-13T20:35:03.985Z,20.6
2022-11-13T20:36:47.724Z,20.5
2022-11-13T20:38:31.438Z,20.5
2022-11-13T20:40:15.198Z,20.5
2022-11-13T20:41:58.705Z,20.5
2022-11-13T20:43:42.545Z,20.5
2022-11-13T20:45:26.195Z,20.5
2022-11-13T20:47:09.799Z,20.5
2022-11-13T20:48:53.700Z,20.5
2022-11-13T20:50:37.350Z,20.5
2022-11-13T20:52:21.008Z,20.5
2022-11-13T20:54:04.724Z,20.5
2022-11-13T20:55:48.422Z,20.5
2022-11-13T20:57:32.104Z,20.5
2022-11-13T20:59:15.726Z,20.5
2022-11-13T21:00:59.582Z,20.5
2022-11-13T21:02:43.215Z,20.5
2022-11-13T21:04:26.971Z,20.5
2022-11-13T21:06:10.680Z,20.5
2022-11-13T21:07:54.393Z,20.5
2022-11-13T21:09:38.032Z,20.5
2022-11-13T21:11:21.788Z,20.5
2022-11-13T21:13:05.432Z,20.5
2022-11-13T21:14:49.157Z,20.5
2022-11-13T21:16:32.952Z,20.5
2022-11-13T21:18:16.575Z,20.5
2022-11-13T21:20:00.162Z,20.5
2022-11-13T21:21:43.861Z,20.5
2022-11-13T21:23:27.633Z,20.5
2022-11-13T21:25:11.277Z,20.5
2022-11-13T21:26:55.110Z,20.5
2022-11-13T21:28:38.833Z,20.5
2022-11-13T21:30:22.468Z,20.5
2022-11-13T21:32:06.177Z,20.5
2022-11-13T21:33:49.809Z,20.5
2022-11-13T21:35:33.611Z,20.5
2022-11-13T21:37:17.186Z,20.5
2022-11-13T21:39:01.025Z,20.5
2022-11-13T21:40:44.639Z,20.5
2022-11-13T21:42:28.365Z,20.4
2022-11-13T21:44:12.111Z,20.4
2022-11-13T21:45:55.707Z,20.4
2022-11-13T21:47:39.443Z,20.4
2022-11-13T21:49:23.223Z,20.4
2022-11-13T21:51:06.849Z,20.4
2022-11-13T21:52:50.508Z,20.4
2022-11-13T21:54:34.342Z,20.4
2022-11-13T21:56:17.941Z,20.4
2022-11-13T21:58:01.627Z,20.4
2022-11-13T21:59:45.313Z,20.4
2022-11-13T22:01:29.126Z,20.4
2022-11-13T22:03:12.737Z,20.4
2022-11-13T22:04:56.437Z,20.4
2022-11-13T22:06:40.218Z,20.4
2022-11-13T22:08:23.910Z,20.4
2022-11-13T22:10:07.583Z,20.4
2022-11-13T22:11:51.278Z,20.4
2022-11-13T22:13:35.004Z,20.4
2022-11-13T22:15:18.639Z,20.4
2022-11-13T22:17:02.500Z,20.4
2022-11-13T22:18:46.214Z,20.4
2022-11-13T22:20:29.772Z,20.4
2022-11-13T22:22:13.577Z,20.4
2022-11-13T22:23:57.221Z,20.4
2022-11-13T22:25:40.961Z,20.4
2022-11-13T22:27:24.603Z,20.3
2022-11-13T22:29:08.347Z,20.3
2022-11-13T22:30:51.967Z,20.3
2022-11-13T22:32:35.669Z,20.3
2022-11-13T22:34:19.515Z,20.3
2022-11-13T22:36:03.132Z,20.3
2022-11-13T22:37:46.765Z,20.4
2022-11-13T22:39:30.472Z,20.3
2022-11-13T22:41:14.169Z,20.4
2022-11-13T22:42:57.871Z,20.3
2022-11-13T22:44:41.585Z,20.3
2022-11-13T22:46:25.341Z,20.3
2022-11-13T22:48:08.992Z,20.3
2022-11-13T22:49:52.814Z,20.3
2022-11-13T22:51:36.392Z,20.3
2022-11-13T22:53:20.122Z,20.3
2022-11-13T22:55:03.800Z,20.3
2022-11-13T22:56:47.516Z,20.3
2022-11-13T22:58:31.257Z,20.3
2022-11-13T23:00:14.931Z,20.3
2022-11-13T23:01:58.717Z,20.3
2022-11-13T23:03:42.311Z,20.3
2022-11-13T23:05:26.066Z,20.3
2022-11-13T23:07:09.717Z,20.3
2022-11-13T23:08:53.554Z,20.3
2022-11-13T23:10:37.120Z,20.3
2022-11-13T23:12:20.864Z,20.3
2022-11-13T23:14:04.558Z,20.3
2022-11-13T23:15:48.232Z,20.3
2022-11-13T23:17:31.937Z,20.3
2022-11-13T23:19:15.633Z,20.3
2022-11-13T23:20:59.337Z,20.3